KWDG/WDG METAR and TAF weather

Enter ICAO airport designator
Station Type Date Time Source
KWDG METAR 2021/09/27 08:15 UTC NOAA

KWDG 270815Z AUTO 19006KT 10SM CLR 17/08 A2993 RMK AO2


Station Type Date Time Source
KWDG Decoded METAR 2021/09/27 08:15 UTC NOAA

Enid, Enid Woodring Regional Airport, OK, United States (KWDG) 36-22-45N 097-47-28W
Sep 27, 2021 - 04:15 AM EDT / 2021.09.27 0815 UTC
Wind: from the S (190 degrees) at 7 MPH (6 KT):0
Visibility: 10 mile(s):0
Sky conditions: clear
Temperature: 62 F (17 C)
Dew Point: 46 F (8 C)
Relative Humidity: 55%
Pressure (altimeter): 29.93 in. Hg (1013 hPa)
ob: KWDG 270815Z AUTO 19006KT 10SM CLR 17/08 A2993 RMK AO2
cycle: 8

Station Type Date Time Source
KWDG TAF UTC NOAA

Error!

Example: see airport list